Time;durP1;ratioP1;P1;durP2;ratioP2;P2;SDS_P1;SDS_P2;PMS_P1;PMS_P2;Temp;Humidity;BMP_temperature;BMP_pressure;BME280_temperature;BME280_humidity;BME280_pressure;Samples;Min_cycle;Max_cycle;Signal;HPM_P1;HPM_P2
2024/01/05 00:01:59;;;;;;;;;;;18.00;44.20;;;;;;5094852;28;19919;-68
2024/01/05 00:04:25;;;;;;;;;;;18.10;43.90;;;;;;5094742;28;19931;-68
2024/01/05 00:06:51;;;;;;;;;;;18.10;43.80;;;;;;5094866;28;19927;-68
2024/01/05 00:09:16;;;;;;;;;;;18.10;43.70;;;;;;5078134;28;19920;-68
2024/01/05 00:11:42;;;;;;;;;;;18.10;43.80;;;;;;5094795;28;19919;-68
2024/01/05 00:14:07;;;;;;;;;;;18.00;43.80;;;;;;5094491;28;20382;-69
2024/01/05 00:16:36;;;;;;;;;;;17.90;43.90;;;;;;5094593;28;19920;-69
2024/01/05 00:19:01;;;;;;;;;;;17.70;44.20;;;;;;5094311;28;20018;-68
2024/01/05 00:21:27;;;;;;;;;;;17.60;44.30;;;;;;5094479;28;19947;-69
2024/01/05 00:23:53;;;;;;;;;;;17.50;44.60;;;;;;5094377;28;19927;-69
2024/01/05 00:26:19;;;;;;;;;;;17.40;44.80;;;;;;5112467;28;19924;-68
2024/01/05 00:28:48;;;;;;;;;;;17.30;45.00;;;;;;5094214;28;20458;-69
2024/01/05 00:31:14;;;;;;;;;;;17.10;45.20;;;;;;5094455;28;20045;-68
2024/01/05 00:33:40;;;;;;;;;;;17.00;45.50;;;;;;5094203;28;20010;-68
2024/01/05 00:36:06;;;;;;;;;;;16.90;45.70;;;;;;5094409;28;20362;-69
2024/01/05 00:38:32;;;;;;;;;;;16.80;45.80;;;;;;5112603;28;20006;-69
2024/01/05 00:40:57;;;;;;;;;;;16.70;46.00;;;;;;5094186;28;20003;-69
2024/01/05 00:43:23;;;;;;;;;;;16.70;46.10;;;;;;5094532;28;19920;-69
2024/01/05 00:45:48;;;;;;;;;;;16.70;46.20;;;;;;5112268;28;19969;-68
2024/01/05 00:48:14;;;;;;;;;;;16.70;46.10;;;;;;5094013;28;19919;-69
2024/01/05 00:50:39;;;;;;;;;;;16.80;46.10;;;;;;5128107;28;19969;-68
2024/01/05 00:53:05;;;;;;;;;;;16.90;45.90;;;;;;5112145;28;19923;-68
2024/01/05 00:55:31;;;;;;;;;;;17.00;45.70;;;;;;5112272;28;19920;-68
2024/01/05 00:57:56;;;;;;;;;;;17.10;45.60;;;;;;5094210;28;19945;-69
2024/01/05 01:00:22;;;;;;;;;;;17.10;45.40;;;;;;5112003;28;19924;-70
2024/01/05 01:02:47;;;;;;;;;;;17.10;45.30;;;;;;5094332;28;20385;-69
2024/01/05 01:05:13;;;;;;;;;;;17.10;45.20;;;;;;5094272;28;19919;-69
2024/01/05 01:07:39;;;;;;;;;;;17.20;45.20;;;;;;5096301;28;19931;-68
2024/01/05 01:10:05;;;;;;;;;;;17.10;45.10;;;;;;5097594;28;19919;-68
2024/01/05 01:12:30;;;;;;;;;;;17.10;45.10;;;;;;5097740;28;19926;-68
2024/01/05 01:14:56;;;;;;;;;;;17.10;45.20;;;;;;5131621;27;19920;-68
2024/01/05 01:17:22;;;;;;;;;;;17.10;45.20;;;;;;5097458;28;19949;-69
2024/01/05 01:19:48;;;;;;;;;;;17.10;45.30;;;;;;5097591;28;19923;-69
2024/01/05 01:22:16;;;;;;;;;;;17.00;45.30;;;;;;5115587;28;19920;-68
2024/01/05 01:24:42;;;;;;;;;;;17.00;45.30;;;;;;5097246;28;19920;-68
2024/01/05 01:27:10;;;;;;;;;;;17.00;45.40;;;;;;5131441;27;19919;-68
2024/01/05 01:29:36;;;;;;;;;;;16.90;45.50;;;;;;5097183;28;19920;-68
2024/01/05 01:32:02;;;;;;;;;;;16.90;45.60;;;;;;5115882;28;19967;-68
2024/01/05 01:34:27;;;;;;;;;;;16.80;45.70;;;;;;5115420;28;19920;-68
2024/01/05 01:36:53;;;;;;;;;;;16.80;45.80;;;;;;5097023;28;20371;-68
2024/01/05 01:39:18;;;;;;;;;;;16.70;45.80;;;;;;5097178;28;19928;-68
2024/01/05 01:41:44;;;;;;;;;;;16.70;45.90;;;;;;5096986;28;19927;-69
2024/01/05 01:44:09;;;;;;;;;;;16.60;46.00;;;;;;5115258;28;19919;-68
2024/01/05 01:46:36;;;;;;;;;;;16.60;46.10;;;;;;5115271;28;19926;-68
2024/01/05 01:49:03;;;;;;;;;;;16.60;46.20;;;;;;5097026;28;19920;-68
2024/01/05 01:51:31;;;;;;;;;;;16.50;46.20;;;;;;5096596;28;20455;-68
2024/01/05 01:53:58;;;;;;;;;;;16.50;46.40;;;;;;5096656;28;19927;-68
2024/01/05 01:56:24;;;;;;;;;;;16.50;46.50;;;;;;5097133;28;19920;-68
2024/01/05 01:58:50;;;;;;;;;;;16.40;46.40;;;;;;5115194;28;19998;-69
2024/01/05 02:01:18;;;;;;;;;;;16.40;46.50;;;;;;5097108;28;20271;-68
2024/01/05 02:03:44;;;;;;;;;;;16.40;46.50;;;;;;5097118;28;20272;-67
2024/01/05 02:06:09;;;;;;;;;;;16.40;46.50;;;;;;5097160;28;20264;-68
2024/01/05 02:08:35;;;;;;;;;;;16.40;46.50;;;;;;5096834;28;20397;-68
2024/01/05 02:11:01;;;;;;;;;;;16.40;46.60;;;;;;5130849;27;20286;-68
2024/01/05 02:13:27;;;;;;;;;;;16.40;46.60;;;;;;5096381;28;19926;-68
2024/01/05 02:15:52;;;;;;;;;;;16.40;46.60;;;;;;5096437;28;19928;-68
2024/01/05 02:18:18;;;;;;;;;;;16.40;46.60;;;;;;5114604;28;19924;-69
2024/01/05 02:20:44;;;;;;;;;;;16.50;46.60;;;;;;5096201;28;20104;-68
2024/01/05 02:23:13;;;;;;;;;;;16.60;46.50;;;;;;5096193;28;20401;-68
2024/01/05 02:25:39;;;;;;;;;;;16.70;46.20;;;;;;5096128;28;19920;-68
2024/01/05 02:28:04;;;;;;;;;;;16.90;46.00;;;;;;5096140;28;20022;-68
2024/01/05 02:30:30;;;;;;;;;;;17.00;45.70;;;;;;5130430;27;19923;-68
2024/01/05 02:32:59;;;;;;;;;;;17.10;45.40;;;;;;5096409;28;20375;-68
2024/01/05 02:35:27;;;;;;;;;;;17.30;45.10;;;;;;5096228;28;20010;-69
2024/01/05 02:37:53;;;;;;;;;;;17.50;44.70;;;;;;5114140;28;19920;-69
2024/01/05 02:40:18;;;;;;;;;;;17.70;44.20;;;;;;5095842;28;19931;-68
2024/01/05 02:42:44;;;;;;;;;;;17.90;43.90;;;;;;5114139;28;19946;-69
2024/01/05 02:45:10;;;;;;;;;;;18.10;43.70;;;;;;5114070;28;20294;-68
2024/01/05 02:47:35;;;;;;;;;;;18.10;43.30;;;;;;5114103;28;19919;-69
2024/01/05 02:50:01;;;;;;;;;;;18.20;43.10;;;;;;5114069;28;19942;-69
2024/01/05 02:52:26;;;;;;;;;;;18.30;43.20;;;;;;5095659;28;19920;-69
2024/01/05 02:54:52;;;;;;;;;;;18.30;43.10;;;;;;5095569;28;19943;-68
2024/01/05 02:57:17;;;;;;;;;;;18.20;43.10;;;;;;5113746;28;19942;-68
2024/01/05 02:59:43;;;;;;;;;;;18.10;43.10;;;;;;5129445;27;20293;-68
2024/01/05 03:02:08;;;;;;;;;;;18.00;43.20;;;;;;5095652;28;20362;-68
2024/01/05 03:04:34;;;;;;;;;;;17.90;43.50;;;;;;5095555;28;20014;-69
2024/01/05 03:06:59;;;;;;;;;;;17.70;43.70;;;;;;5095435;28;19926;-68
2024/01/05 03:09:28;;;;;;;;;;;17.60;44.00;;;;;;5113471;28;19924;-68
2024/01/05 03:11:53;;;;;;;;;;;17.40;44.20;;;;;;5095230;28;19926;-67
2024/01/05 03:14:19;;;;;;;;;;;17.30;44.50;;;;;;5095225;28;19924;-68
2024/01/05 03:16:44;;;;;;;;;;;17.20;44.80;;;;;;5095466;28;20328;-68
2024/01/05 03:19:10;;;;;;;;;;;17.00;45.00;;;;;;5113416;28;19923;-71
2024/01/05 03:21:35;;;;;;;;;;;16.90;45.30;;;;;;5095408;28;20370;-69
2024/01/05 03:24:01;;;;;;;;;;;16.80;45.50;;;;;;5095378;28;19920;-68
2024/01/05 03:26:26;;;;;;;;;;;16.70;45.80;;;;;;5095074;28;20379;-69
2024/01/05 03:28:52;;;;;;;;;;;16.50;45.90;;;;;;5094902;28;19927;-69
2024/01/05 03:31:19;;;;;;;;;;;16.60;46.10;;;;;;5094702;28;19927;-69
2024/01/05 03:33:45;;;;;;;;;;;16.60;46.10;;;;;;5094953;28;19919;-68
2024/01/05 03:36:10;;;;;;;;;;;16.70;46.00;;;;;;5113219;28;20031;-69
2024/01/05 03:38:36;;;;;;;;;;;16.80;45.80;;;;;;5113272;28;19920;-68
2024/01/05 03:41:02;;;;;;;;;;;16.90;45.60;;;;;;5112961;28;19930;-69
2024/01/05 03:43:27;;;;;;;;;;;17.00;45.40;;;;;;5094757;28;20431;-69
2024/01/05 03:45:53;;;;;;;;;;;17.10;45.30;;;;;;5112985;28;19927;-70
2024/01/05 03:48:18;;;;;;;;;;;17.10;45.20;;;;;;5094954;28;19977;-69
2024/01/05 03:50:44;;;;;;;;;;;17.10;45.20;;;;;;5094757;28;20246;-69
2024/01/05 03:53:09;;;;;;;;;;;17.10;45.10;;;;;;5094845;28;19969;-68
2024/01/05 03:55:38;;;;;;;;;;;17.10;45.10;;;;;;5094836;28;19946;-68
2024/01/05 03:58:03;;;;;;;;;;;17.10;45.20;;;;;;5113006;28;20375;-69
2024/01/05 04:00:29;;;;;;;;;;;17.00;45.20;;;;;;5094317;28;19935;-69
2024/01/05 04:02:54;;;;;;;;;;;17.00;45.30;;;;;;5094807;28;19920;-69
2024/01/05 04:05:20;;;;;;;;;;;16.90;45.30;;;;;;5094859;28;20036;-69
2024/01/05 04:07:45;;;;;;;;;;;16.90;45.40;;;;;;5094843;28;19919;-68
2024/01/05 04:10:12;;;;;;;;;;;16.90;45.60;;;;;;5094451;28;20383;-69
2024/01/05 04:12:38;;;;;;;;;;;16.80;45.50;;;;;;5112766;28;20190;-69
2024/01/05 04:15:04;;;;;;;;;;;16.80;45.70;;;;;;5094378;28;19920;-69
2024/01/05 04:17:29;;;;;;;;;;;16.70;45.70;;;;;;5128763;28;19958;-69
2024/01/05 04:19:55;;;;;;;;;;;16.70;45.80;;;;;;5112494;28;19971;-69
2024/01/05 04:22:20;;;;;;;;;;;16.70;45.90;;;;;;5094791;28;20018;-69
2024/01/05 04:24:46;;;;;;;;;;;16.60;46.00;;;;;;5094288;28;20382;-69
2024/01/05 04:27:11;;;;;;;;;;;16.60;46.10;;;;;;5094233;28;19926;-69
2024/01/05 04:29:38;;;;;;;;;;;16.50;46.20;;;;;;5094517;28;19919;-69
2024/01/05 04:32:04;;;;;;;;;;;16.50;46.30;;;;;;5112721;28;20297;-69
2024/01/05 04:34:29;;;;;;;;;;;16.50;46.40;;;;;;5094547;28;20027;-69
2024/01/05 04:36:55;;;;;;;;;;;16.50;46.40;;;;;;5094487;28;19935;-68
2024/01/05 04:39:21;;;;;;;;;;;16.40;46.50;;;;;;5094324;28;20363;-69
2024/01/05 04:41:46;;;;;;;;;;;16.40;46.60;;;;;;5113427;28;20271;-69
2024/01/05 04:44:13;;;;;;;;;;;16.40;46.60;;;;;;5116304;28;19920;-68
2024/01/05 04:46:38;;;;;;;;;;;16.40;46.60;;;;;;5098391;28;20011;-68
2024/01/05 04:49:04;;;;;;;;;;;16.40;46.60;;;;;;5116462;28;20057;-69
2024/01/05 04:51:29;;;;;;;;;;;16.40;46.70;;;;;;5098026;28;19946;-69
2024/01/05 04:53:55;;;;;;;;;;;16.40;46.70;;;;;;5116216;28;19920;-69
2024/01/05 04:56:20;;;;;;;;;;;16.40;46.70;;;;;;5098109;28;19927;-69
2024/01/05 04:58:46;;;;;;;;;;;16.40;46.80;;;;;;5115862;28;20360;-68
2024/01/05 05:01:12;;;;;;;;;;;16.40;46.80;;;;;;5115942;28;19924;-68
2024/01/05 05:03:38;;;;;;;;;;;16.40;46.80;;;;;;5097732;28;19927;-69
2024/01/05 05:06:03;;;;;;;;;;;16.40;46.80;;;;;;5097695;28;19919;-69
2024/01/05 05:08:29;;;;;;;;;;;16.40;46.90;;;;;;5115846;28;20332;-68
2024/01/05 05:10:54;;;;;;;;;;;16.40;46.90;;;;;;5097563;28;20105;-69
2024/01/05 05:13:20;;;;;;;;;;;16.40;47.00;;;;;;5097459;28;20052;-69
2024/01/05 05:15:45;;;;;;;;;;;16.30;46.90;;;;;;5115986;28;19945;-69
2024/01/05 05:18:11;;;;;;;;;;;16.30;47.00;;;;;;5097841;28;19969;-69
2024/01/05 05:20:36;;;;;;;;;;;16.30;47.10;;;;;;5097367;28;20018;-68
2024/01/05 05:23:02;;;;;;;;;;;16.40;47.10;;;;;;5097720;28;19966;-69
2024/01/05 05:25:28;;;;;;;;;;;16.60;46.80;;;;;;5097748;28;19927;-69
2024/01/05 05:27:53;;;;;;;;;;;17.00;46.30;;;;;;5097266;28;20420;-69
2024/01/05 05:30:19;;;;;;;;;;;17.30;45.50;;;;;;5097535;28;19977;-69
2024/01/05 05:32:44;;;;;;;;;;;17.60;44.90;;;;;;5097184;28;19920;-69
2024/01/05 05:35:12;;;;;;;;;;;17.80;44.40;;;;;;5115879;28;19920;-69
2024/01/05 05:37:38;;;;;;;;;;;18.00;44.10;;;;;;5097462;28;19920;-68
2024/01/05 05:40:04;;;;;;;;;;;18.10;43.70;;;;;;5115445;28;20023;-69
2024/01/05 05:42:29;;;;;;;;;;;18.20;43.50;;;;;;5115233;28;20310;-68
2024/01/05 05:44:55;;;;;;;;;;;18.30;43.20;;;;;;5096782;28;19919;-68
2024/01/05 05:47:20;;;;;;;;;;;18.40;43.20;;;;;;5096834;28;19919;-69
2024/01/05 05:49:46;;;;;;;;;;;18.40;43.20;;;;;;5115223;28;19920;-68
2024/01/05 05:52:11;;;;;;;;;;;18.30;43.20;;;;;;5096706;28;19919;-69
2024/01/05 05:54:37;;;;;;;;;;;18.30;43.20;;;;;;5096902;28;19920;-68
2024/01/05 05:57:03;;;;;;;;;;;18.20;43.20;;;;;;5097174;28;19951;-68
2024/01/05 05:59:29;;;;;;;;;;;18.10;43.40;;;;;;5096351;28;19928;-69
2024/01/05 06:01:55;;;;;;;;;;;18.00;43.60;;;;;;5096732;28;19926;-68
2024/01/05 06:04:20;;;;;;;;;;;17.90;44.00;;;;;;5096601;28;20324;-68
2024/01/05 06:06:46;;;;;;;;;;;17.70;44.20;;;;;;5114799;28;19926;-69
2024/01/05 06:09:14;;;;;;;;;;;17.60;44.50;;;;;;5096711;28;20396;-69
2024/01/05 06:11:39;;;;;;;;;;;17.40;44.70;;;;;;5114916;28;19920;-68
2024/01/05 06:14:05;;;;;;;;;;;17.30;45.00;;;;;;5096705;28;20385;-69
2024/01/05 06:16:31;;;;;;;;;;;17.10;45.30;;;;;;5096332;28;20302;-69
2024/01/05 06:18:59;;;;;;;;;;;16.90;45.50;;;;;;5096537;28;19948;-69
2024/01/05 06:21:25;;;;;;;;;;;16.90;45.80;;;;;;5096251;28;19927;-69
2024/01/05 06:23:51;;;;;;;;;;;16.70;46.10;;;;;;5096149;28;20305;-68
2024/01/05 06:26:16;;;;;;;;;;;16.60;46.30;;;;;;5096559;28;20278;-69
2024/01/05 06:28:42;;;;;;;;;;;16.50;46.50;;;;;;5114376;28;19920;-69
2024/01/05 06:31:08;;;;;;;;;;;16.50;46.80;;;;;;5096437;28;19920;-68
2024/01/05 06:33:34;;;;;;;;;;;16.50;46.90;;;;;;5096057;28;19919;-68
2024/01/05 06:36:00;;;;;;;;;;;16.60;46.70;;;;;;5114441;28;19972;-69
2024/01/05 06:38:25;;;;;;;;;;;16.60;46.70;;;;;;5096144;28;20400;-69
2024/01/05 06:40:50;;;;;;;;;;;16.70;46.50;;;;;;5095942;28;19923;-68
2024/01/05 06:43:16;;;;;;;;;;;16.70;46.50;;;;;;5114102;28;19943;-69
2024/01/05 06:45:41;;;;;;;;;;;16.70;46.50;;;;;;5114133;28;20367;-67
2024/01/05 06:48:07;;;;;;;;;;;16.70;46.50;;;;;;5114032;28;19920;-68
2024/01/05 06:50:33;;;;;;;;;;;16.70;46.50;;;;;;5095977;28;19920;-69
2024/01/05 06:52:58;;;;;;;;;;;16.70;46.50;;;;;;5096048;28;19982;-69
2024/01/05 06:55:24;;;;;;;;;;;16.60;46.60;;;;;;5113794;28;20336;-68
2024/01/05 06:57:50;;;;;;;;;;;16.60;46.60;;;;;;5095905;28;20010;-69
2024/01/05 07:00:15;;;;;;;;;;;16.60;46.70;;;;;;5113505;28;19935;-70
2024/01/05 07:02:41;;;;;;;;;;;16.60;46.80;;;;;;5095844;28;19920;-69
2024/01/05 07:05:07;;;;;;;;;;;16.50;46.90;;;;;;5095060;28;19924;-69
2024/01/05 07:07:32;;;;;;;;;;;16.50;46.90;;;;;;5113885;28;19919;-69
2024/01/05 07:09:58;;;;;;;;;;;16.50;46.90;;;;;;5095598;28;19927;-68
2024/01/05 07:12:23;;;;;;;;;;;16.50;46.90;;;;;;5095368;28;19934;-69
2024/01/05 07:14:52;;;;;;;;;;;16.50;47.00;;;;;;5113487;28;19924;-69
2024/01/05 07:17:21;;;;;;;;;;;16.50;47.20;;;;;;5129444;27;19920;-70
2024/01/05 07:19:46;;;;;;;;;;;16.50;47.10;;;;;;5113529;28;19924;-69
2024/01/05 07:22:12;;;;;;;;;;;16.50;47.10;;;;;;5095499;28;19927;-68
2024/01/05 07:24:38;;;;;;;;;;;16.50;47.10;;;;;;5113438;28;20321;-69
2024/01/05 07:27:04;;;;;;;;;;;16.50;47.10;;;;;;5113328;28;19919;-69
2024/01/05 07:29:30;;;;;;;;;;;16.50;47.20;;;;;;5113215;28;20294;-68
2024/01/05 07:31:56;;;;;;;;;;;16.50;47.30;;;;;;5094921;28;19920;-68
2024/01/05 07:34:21;;;;;;;;;;;16.50;47.30;;;;;;5095202;28;19920;-69
2024/01/05 07:36:47;;;;;;;;;;;16.50;47.40;;;;;;5094873;28;19927;-69
2024/01/05 07:39:13;;;;;;;;;;;16.40;47.40;;;;;;5094778;28;19919;-68
2024/01/05 07:41:39;;;;;;;;;;;16.40;47.40;;;;;;5094926;28;19924;-68
2024/01/05 07:44:05;;;;;;;;;;;16.40;47.50;;;;;;5095096;28;20006;-69
2024/01/05 07:46:30;;;;;;;;;;;16.40;47.60;;;;;;5112819;28;20006;-69
2024/01/05 07:48:56;;;;;;;;;;;16.40;47.60;;;;;;5113197;28;19927;-68
2024/01/05 07:51:22;;;;;;;;;;;16.40;47.70;;;;;;5113290;28;20294;-69
2024/01/05 07:53:48;;;;;;;;;;;16.40;47.70;;;;;;5094709;28;19963;-69
2024/01/05 07:56:17;;;;;;;;;;;16.40;47.80;;;;;;5094797;28;19920;-68
2024/01/05 07:58:43;;;;;;;;;;;16.30;47.80;;;;;;5094329;28;20018;-69
2024/01/05 08:01:13;;;;;;;;;;;16.30;47.90;;;;;;5094438;28;20073;-68
2024/01/05 08:03:39;;;;;;;;;;;16.30;47.90;;;;;;5113256;28;19979;-68
2024/01/05 08:06:04;;;;;;;;;;;16.30;47.90;;;;;;5094492;28;19969;-68
2024/01/05 08:08:30;;;;;;;;;;;16.30;48.00;;;;;;5094936;28;20014;-68
2024/01/05 08:10:55;;;;;;;;;;;16.20;48.00;;;;;;5094424;28;19919;-68
2024/01/05 08:13:25;;;;;;;;;;;16.20;48.10;;;;;;5112683;28;19926;-69
2024/01/05 08:15:51;;;;;;;;;;;16.20;48.30;;;;;;5095912;28;20006;-68
2024/01/05 08:18:17;;;;;;;;;;;16.10;48.30;;;;;;5133673;27;19959;-69
2024/01/05 08:20:42;;;;;;;;;;;16.10;48.40;;;;;;5098575;28;19923;-68
2024/01/05 08:23:08;;;;;;;;;;;16.00;48.50;;;;;;5098768;28;19924;-69
2024/01/05 08:25:33;;;;;;;;;;;16.00;48.70;;;;;;5098405;28;20387;-68
2024/01/05 08:28:02;;;;;;;;;;;15.90;48.70;;;;;;5098709;28;20010;-69
2024/01/05 08:30:27;;;;;;;;;;;15.90;48.90;;;;;;5116665;28;19920;-68
2024/01/05 08:32:55;;;;;;;;;;;15.90;49.10;;;;;;5116458;28;19927;-69
2024/01/05 08:35:20;;;;;;;;;;;16.10;49.80;;;;;;5098694;28;19973;-69
2024/01/05 08:37:46;;;;;;;;;;;16.30;48.50;;;;;;5098399;28;19920;-68
2024/01/05 08:40:12;;;;;;;;;;;16.60;48.00;;;;;;5116380;28;19924;-69
2024/01/05 08:42:37;;;;;;;;;;;16.90;47.60;;;;;;5116458;28;20006;-69
2024/01/05 08:45:03;;;;;;;;;;;17.10;47.20;;;;;;5132587;27;20285;-69
2024/01/05 08:47:29;;;;;;;;;;;17.40;46.60;;;;;;5098002;28;19972;-69
2024/01/05 08:49:55;;;;;;;;;;;17.70;46.00;;;;;;5116634;28;19919;-69
2024/01/05 08:52:20;;;;;;;;;;;18.00;45.30;;;;;;5132654;27;19920;-69
2024/01/05 08:54:45;;;;;;;;;;;18.30;44.80;;;;;;5098058;28;19919;-69
2024/01/05 08:57:11;;;;;;;;;;;18.50;44.40;;;;;;5097855;28;19920;-70
2024/01/05 08:59:38;;;;;;;;;;;18.60;44.90;;;;;;5097491;28;19924;-69
2024/01/05 09:02:05;;;;;;;;;;;18.60;44.00;;;;;;5097801;28;19927;-69
2024/01/05 09:04:31;;;;;;;;;;;18.60;44.10;;;;;;5097624;28;19931;-69
2024/01/05 09:06:58;;;;;;;;;;;18.50;44.10;;;;;;5116091;28;19919;-69
2024/01/05 09:09:24;;;;;;;;;;;18.40;44.30;;;;;;5097610;28;19926;-69
2024/01/05 09:11:49;;;;;;;;;;;18.30;44.50;;;;;;5097935;28;19920;-69
2024/01/05 09:14:15;;;;;;;;;;;18.20;44.70;;;;;;5115918;28;19922;-69
2024/01/05 09:16:41;;;;;;;;;;;18.00;44.90;;;;;;5097842;28;20275;-69
2024/01/05 09:19:07;;;;;;;;;;;17.90;45.20;;;;;;5097610;28;20407;-69
2024/01/05 09:21:33;;;;;;;;;;;17.70;45.50;;;;;;5097739;28;20014;-69
2024/01/05 09:23:58;;;;;;;;;;;17.60;45.80;;;;;;5097449;28;20018;-68
2024/01/05 09:26:24;;;;;;;;;;;17.50;46.00;;;;;;5097340;28;19919;-69
2024/01/05 09:28:49;;;;;;;;;;;17.40;47.00;;;;;;5096874;28;19919;-69
2024/01/05 09:31:15;;;;;;;;;;;17.20;46.50;;;;;;5115576;28;19920;-69
2024/01/05 09:33:40;;;;;;;;;;;17.10;46.70;;;;;;5097478;28;19919;-69
2024/01/05 09:36:06;;;;;;;;;;;17.00;47.00;;;;;;5097252;28;19949;-69
2024/01/05 09:38:32;;;;;;;;;;;16.90;47.10;;;;;;5115415;28;19926;-69
2024/01/05 09:40:58;;;;;;;;;;;16.80;47.40;;;;;;5097088;28;19923;-69
2024/01/05 09:43:26;;;;;;;;;;;16.70;47.80;;;;;;5115421;28;20394;-69
2024/01/05 09:45:52;;;;;;;;;;;16.60;47.80;;;;;;5097202;28;19919;-68
2024/01/05 09:48:19;;;;;;;;;;;16.50;48.10;;;;;;5097149;28;20390;-70
2024/01/05 09:50:49;;;;;;;;;;;16.40;48.20;;;;;;5095321;28;19926;-67
2024/01/05 09:53:17;;;;;;;;;;;16.30;48.50;;;;;;5093769;28;19920;-66
2024/01/05 09:55:46;;;;;;;;;;;16.20;48.80;;;;;;5094810;28;19927;-66
2024/01/05 09:58:13;;;;;;;;;;;16.20;49.10;;;;;;5094632;28;19920;-65
2024/01/05 10:00:39;;;;;;;;;;;16.10;49.40;;;;;;5093027;28;19924;-66
2024/01/05 10:03:07;;;;;;;;;;;16.00;49.60;;;;;;5093337;28;19969;-68
2024/01/05 10:05:33;;;;;;;;;;;16.00;49.90;;;;;;5092848;28;19926;-68
2024/01/05 10:07:59;;;;;;;;;;;15.90;50.20;;;;;;5092918;28;20551;-68
2024/01/05 10:10:45;;;;;;;;;;;15.80;50.50;;;;;;5093423;28;19921;-68
2024/01/05 10:13:11;;;;;;;;;;;15.70;50.70;;;;;;5093371;28;19920;-68
2024/01/05 10:15:50;;;;;;;;;;;15.70;50.90;;;;;;5092924;28;19927;-68
2024/01/05 10:18:16;;;;;;;;;;;15.60;50.90;;;;;;5093359;28;19967;-68
2024/01/05 10:20:42;;;;;;;;;;;15.60;51.10;;;;;;5092912;28;19958;-69
2024/01/05 10:23:08;;;;;;;;;;;15.60;51.20;;;;;;5094302;28;19920;-68
2024/01/05 10:25:35;;;;;;;;;;;15.60;51.30;;;;;;5092767;28;20409;-68
2024/01/05 10:28:01;;;;;;;;;;;15.60;51.30;;;;;;5094140;28;19924;-68
2024/01/05 10:30:28;;;;;;;;;;;15.70;51.40;;;;;;5093907;28;20055;-69
2024/01/05 10:33:09;;;;;;;;;;;15.80;51.20;;;;;;5093239;28;19923;-68
2024/01/05 10:35:35;;;;;;;;;;;15.90;51.00;;;;;;5092920;28;19920;-68
2024/01/05 10:38:03;;;;;;;;;;;16.00;50.70;;;;;;5094034;28;20337;-68
2024/01/05 10:40:28;;;;;;;;;;;16.10;50.40;;;;;;5091487;28;19931;-69
2024/01/05 10:43:13;;;;;;;;;;;16.20;50.10;;;;;;5092396;28;20086;-68
2024/01/05 10:45:40;;;;;;;;;;;16.30;50.00;;;;;;5092528;28;19924;-68
2024/01/05 10:48:09;;;;;;;;;;;16.40;49.70;;;;;;5092717;28;20349;-68
2024/01/05 10:50:37;;;;;;;;;;;16.30;50.20;;;;;;5092711;28;19999;-68
2024/01/05 10:53:04;;;;;;;;;;;16.40;49.40;;;;;;5092384;28;19965;-69
2024/01/05 10:55:31;;;;;;;;;;;16.50;49.40;;;;;;5092547;28;19978;-68
2024/01/05 10:57:57;;;;;;;;;;;16.50;49.40;;;;;;5093401;28;19920;-69
2024/01/05 11:00:24;;;;;;;;;;;16.50;49.30;;;;;;5091934;28;20007;-68
2024/01/05 11:02:51;;;;;;;;;;;16.50;49.30;;;;;;5092033;28;20457;-68
2024/01/05 11:05:16;;;;;;;;;;;16.50;49.20;;;;;;5093535;28;20379;-70
2024/01/05 11:07:42;;;;;;;;;;;16.50;49.20;;;;;;5075169;28;19927;-68
2024/01/05 11:10:27;;;;;;;;;;;16.50;49.30;;;;;;5092349;28;19924;-68
2024/01/05 11:15:56;;;;;;;;;;;16.40;49.40;;;;;;5110235;27;19919;-68
2024/01/05 11:21:22;;;;;;;;;;;16.30;49.50;;;;;;5130812;27;19915;-68
2024/01/05 11:23:49;;;;;;;;;;;16.20;49.60;;;;;;5129591;28;19972;-68
2024/01/05 11:26:35;;;;;;;;;;;16.20;49.60;;;;;;5129716;28;20007;-68
2024/01/05 11:29:01;;;;;;;;;;;16.20;49.80;;;;;;5129299;28;19924;-68
2024/01/05 11:34:40;;;;;;;;;;;16.10;49.90;;;;;;5110309;27;19918;-68
2024/01/05 11:37:06;;;;;;;;;;;16.10;50.00;;;;;;5110361;28;19923;-68
2024/01/05 11:42:27;;;;;;;;;;;16.00;50.20;;;;;;5110252;27;19918;-68
2024/01/05 11:44:53;;;;;;;;;;;16.00;50.30;;;;;;5109176;28;20271;-68
2024/01/05 11:47:40;;;;;;;;;;;15.90;50.40;;;;;;5109237;28;19920;-68
2024/01/05 11:50:26;;;;;;;;;;;15.80;50.50;;;;;;5108623;28;19927;-68
2024/01/05 11:58:31;;;;;;;;;;;15.60;50.80;;;;;;5130607;27;19912;-67
2024/01/05 12:00:57;;;;;;;;;;;15.60;51.00;;;;;;5129707;28;19919;-68
2024/01/05 12:03:25;;;;;;;;;;;15.60;51.20;;;;;;5129750;28;19969;-68
2024/01/05 12:05:54;;;;;;;;;;;15.60;51.30;;;;;;5129020;27;19942;-68
2024/01/05 12:08:23;;;;;;;;;;;15.60;51.40;;;;;;5128792;27;19942;-67
2024/01/05 12:10:54;;;;;;;;;;;15.50;51.40;;;;;;5127578;28;20014;-67
2024/01/05 12:13:22;;;;;;;;;;;15.50;51.50;;;;;;5127106;28;19965;-68
2024/01/05 12:15:51;;;;;;;;;;;15.40;51.50;;;;;;5127518;28;20011;-68
2024/01/05 12:18:18;;;;;;;;;;;15.40;51.60;;;;;;5129112;27;19932;-68
2024/01/05 12:20:43;;;;;;;;;;;15.40;51.70;;;;;;5127481;28;19972;-68
2024/01/05 12:23:10;;;;;;;;;;;15.30;51.80;;;;;;5130399;28;19924;-68
2024/01/05 12:25:39;;;;;;;;;;;15.30;52.00;;;;;;5130768;27;20287;-68
2024/01/05 12:28:05;;;;;;;;;;;15.30;52.00;;;;;;5129236;28;20384;-67
2024/01/05 12:30:30;;;;;;;;;;;15.20;52.10;;;;;;5130353;28;19974;-68
2024/01/05 12:32:56;;;;;;;;;;;15.20;52.20;;;;;;5129212;28;20293;-67
2024/01/05 12:35:22;;;;;;;;;;;15.20;52.40;;;;;;5128703;28;20374;-68
2024/01/05 12:37:49;;;;;;;;;;;15.10;52.40;;;;;;5128775;28;19930;-67
2024/01/05 12:40:21;;;;;;;;;;;15.10;52.50;;;;;;5129063;28;20040;-68
2024/01/05 12:42:46;;;;;;;;;;;15.10;52.70;;;;;;5129970;27;19924;-68
2024/01/05 12:45:12;;;;;;;;;;;15.00;52.70;;;;;;5128890;28;20565;-68
2024/01/05 12:47:37;;;;;;;;;;;15.00;53.00;;;;;;5128666;28;20290;-67
2024/01/05 12:50:03;;;;;;;;;;;15.30;52.80;;;;;;5128774;28;19923;-68
2024/01/05 12:52:33;;;;;;;;;;;15.70;52.10;;;;;;5129830;27;19972;-67
2024/01/05 12:54:59;;;;;;;;;;;16.10;51.40;;;;;;5128529;28;19920;-68
2024/01/05 12:57:25;;;;;;;;;;;16.30;50.70;;;;;;5128091;28;19930;-68
2024/01/05 12:59:51;;;;;;;;;;;16.70;50.00;;;;;;5128349;28;20324;-67
2024/01/05 13:02:17;;;;;;;;;;;17.10;49.20;;;;;;5128144;28;19928;-67
2024/01/05 13:04:42;;;;;;;;;;;17.60;48.30;;;;;;5128537;28;20309;-68
2024/01/05 13:07:10;;;;;;;;;;;18.20;47.20;;;;;;5128457;28;19927;-67
2024/01/05 13:09:36;;;;;;;;;;;18.70;46.30;;;;;;5117080;27;20018;-68
2024/01/05 13:12:04;;;;;;;;;;;19.10;45.50;;;;;;5115684;28;19945;-67
2024/01/05 13:14:30;;;;;;;;;;;19.30;44.90;;;;;;5114601;28;20022;-67
2024/01/05 13:16:57;;;;;;;;;;;19.40;44.60;;;;;;5114375;28;20305;-67
2024/01/05 13:19:22;;;;;;;;;;;19.40;44.40;;;;;;5114344;28;20382;-68
2024/01/05 13:21:48;;;;;;;;;;;19.40;44.50;;;;;;5115596;28;19945;-67
2024/01/05 13:24:13;;;;;;;;;;;19.30;44.50;;;;;;5114504;28;19964;-67
2024/01/05 13:26:39;;;;;;;;;;;19.20;44.70;;;;;;5114417;28;19924;-67
2024/01/05 13:29:05;;;;;;;;;;;19.00;45.00;;;;;;5113995;28;19919;-68
2024/01/05 13:31:30;;;;;;;;;;;18.80;45.20;;;;;;5114190;28;19920;-69
2024/01/05 13:33:56;;;;;;;;;;;18.70;45.50;;;;;;5114310;28;19920;-67
2024/01/05 13:36:21;;;;;;;;;;;18.50;45.80;;;;;;5113908;28;20015;-67
2024/01/05 13:38:48;;;;;;;;;;;18.30;46.10;;;;;;5113808;28;19927;-67
2024/01/05 13:41:13;;;;;;;;;;;18.10;46.40;;;;;;5115185;28;19920;-68
2024/01/05 13:43:39;;;;;;;;;;;18.00;46.80;;;;;;5113993;28;20371;-67
2024/01/05 13:46:04;;;;;;;;;;;17.80;47.00;;;;;;5114086;28;20366;-67
2024/01/05 13:48:30;;;;;;;;;;;17.70;47.30;;;;;;5115029;28;19972;-68
2024/01/05 13:50:55;;;;;;;;;;;17.50;47.50;;;;;;5114921;28;19973;-67
2024/01/05 13:53:21;;;;;;;;;;;17.40;47.80;;;;;;5113840;28;19972;-68
2024/01/05 13:55:46;;;;;;;;;;;17.30;48.00;;;;;;5113861;28;19962;-67
2024/01/05 13:58:12;;;;;;;;;;;17.20;48.30;;;;;;5113189;28;19931;-67
2024/01/05 14:00:38;;;;;;;;;;;17.10;48.50;;;;;;5113351;28;19927;-67
2024/01/05 14:03:07;;;;;;;;;;;17.00;48.70;;;;;;5113646;28;19920;-67
2024/01/05 14:05:36;;;;;;;;;;;16.90;48.90;;;;;;5114830;28;19931;-67
2024/01/05 14:08:01;;;;;;;;;;;16.80;49.10;;;;;;5113265;28;19920;-67
2024/01/05 14:10:27;;;;;;;;;;;16.70;49.20;;;;;;5113571;28;19927;-68
2024/01/05 14:12:52;;;;;;;;;;;16.60;49.40;;;;;;5113425;28;19924;-67
2024/01/05 14:15:18;;;;;;;;;;;16.60;49.60;;;;;;5113173;28;20390;-68
2024/01/05 14:17:45;;;;;;;;;;;16.50;49.80;;;;;;5113225;28;19946;-68
2024/01/05 14:20:13;;;;;;;;;;;16.40;49.90;;;;;;5112076;28;19919;-68
2024/01/05 14:22:39;;;;;;;;;;;16.30;50.10;;;;;;5113258;28;19927;-68
2024/01/05 14:25:05;;;;;;;;;;;16.20;50.20;;;;;;5114762;27;19920;-67
2024/01/05 14:27:30;;;;;;;;;;;16.10;50.30;;;;;;5113277;28;19926;-68
2024/01/05 14:29:56;;;;;;;;;;;16.00;50.50;;;;;;5114135;28;19970;-67